sensor_id;sensor_type;location;lat;lon;timestamp;temperature;humidity
74155;DHT22;62509;46.248;6.018;2023-12-04T00:02:39;-1.60;99.90
74155;DHT22;62509;46.248;6.018;2023-12-04T00:07:42;-1.60;99.90
74155;DHT22;62509;46.248;6.018;2023-12-04T00:12:47;-1.70;99.90
74155;DHT22;62509;46.248;6.018;2023-12-04T00:17:51;-1.80;99.90
74155;DHT22;62509;46.248;6.018;2023-12-04T00:22:55;-1.80;99.90
74155;DHT22;62509;46.248;6.018;2023-12-04T00:27:59;-1.70;99.90
74155;DHT22;62509;46.248;6.018;2023-12-04T00:33:03;-1.70;99.90
74155;DHT22;62509;46.248;6.018;2023-12-04T00:38:06;-1.60;99.90
74155;DHT22;62509;46.248;6.018;2023-12-04T00:43:11;-1.60;99.90
74155;DHT22;62509;46.248;6.018;2023-12-04T00:48:15;-1.70;99.90
74155;DHT22;62509;46.248;6.018;2023-12-04T00:53:18;-1.70;99.90
74155;DHT22;62509;46.248;6.018;2023-12-04T00:58:23;-1.60;99.90
74155;DHT22;62509;46.248;6.018;2023-12-04T01:03:26;-1.60;99.90
74155;DHT22;62509;46.248;6.018;2023-12-04T01:08:30;-1.80;99.90
74155;DHT22;62509;46.248;6.018;2023-12-04T01:13:35;-1.60;99.90
74155;DHT22;62509;46.248;6.018;2023-12-04T01:18:38;-1.50;99.90
74155;DHT22;62509;46.248;6.018;2023-12-04T01:23:42;-1.40;99.90
74155;DHT22;62509;46.248;6.018;2023-12-04T01:28:46;-1.60;99.90
74155;DHT22;62509;46.248;6.018;2023-12-04T01:33:50;-1.50;99.90
74155;DHT22;62509;46.248;6.018;2023-12-04T01:38:54;-1.50;99.90
74155;DHT22;62509;46.248;6.018;2023-12-04T01:43:58;-1.40;99.90
74155;DHT22;62509;46.248;6.018;2023-12-04T01:49:01;-1.40;99.90
74155;DHT22;62509;46.248;6.018;2023-12-04T01:54:05;-1.50;99.90
74155;DHT22;62509;46.248;6.018;2023-12-04T01:59:10;-1.50;99.90
74155;DHT22;62509;46.248;6.018;2023-12-04T02:04:14;-1.40;99.90
74155;DHT22;62509;46.248;6.018;2023-12-04T02:09:17;-1.50;99.90
74155;DHT22;62509;46.248;6.018;2023-12-04T02:14:22;-1.30;99.90
74155;DHT22;62509;46.248;6.018;2023-12-04T02:19:26;-1.30;99.90
74155;DHT22;62509;46.248;6.018;2023-12-04T02:24:31;-1.40;99.90
74155;DHT22;62509;46.248;6.018;2023-12-04T02:29:37;-1.30;99.90
74155;DHT22;62509;46.248;6.018;2023-12-04T02:34:42;-1.30;99.90
74155;DHT22;62509;46.248;6.018;2023-12-04T02:39:49;-1.20;99.90
74155;DHT22;62509;46.248;6.018;2023-12-04T02:44:54;-1.10;99.90
74155;DHT22;62509;46.248;6.018;2023-12-04T02:49:57;-1.00;99.90
74155;DHT22;62509;46.248;6.018;2023-12-04T02:55:02;-1.10;99.90
74155;DHT22;62509;46.248;6.018;2023-12-04T03:00:07;-1.00;99.90
74155;DHT22;62509;46.248;6.018;2023-12-04T03:05:11;-1.00;99.90
74155;DHT22;62509;46.248;6.018;2023-12-04T03:10:16;-1.00;99.90
74155;DHT22;62509;46.248;6.018;2023-12-04T03:15:20;-1.10;99.90
74155;DHT22;62509;46.248;6.018;2023-12-04T03:20:23;-1.00;99.90
74155;DHT22;62509;46.248;6.018;2023-12-04T03:25:28;-1.00;99.90
74155;DHT22;62509;46.248;6.018;2023-12-04T03:30:31;-0.90;99.90
74155;DHT22;62509;46.248;6.018;2023-12-04T03:35:35;-0.90;99.90
74155;DHT22;62509;46.248;6.018;2023-12-04T03:40:39;-0.90;99.90
74155;DHT22;62509;46.248;6.018;2023-12-04T03:45:42;-0.90;99.90
74155;DHT22;62509;46.248;6.018;2023-12-04T03:50:46;-1.00;99.90
74155;DHT22;62509;46.248;6.018;2023-12-04T03:55:51;-0.80;99.90
74155;DHT22;62509;46.248;6.018;2023-12-04T04:00:54;-0.80;99.90
74155;DHT22;62509;46.248;6.018;2023-12-04T04:05:58;-0.70;99.90
74155;DHT22;62509;46.248;6.018;2023-12-04T04:11:03;-0.80;99.90
74155;DHT22;62509;46.248;6.018;2023-12-04T04:16:07;-0.80;99.90
74155;DHT22;62509;46.248;6.018;2023-12-04T04:21:15;-0.90;99.90
74155;DHT22;62509;46.248;6.018;2023-12-04T04:26:19;-0.60;99.90
74155;DHT22;62509;46.248;6.018;2023-12-04T04:31:23;-0.70;99.90
74155;DHT22;62509;46.248;6.018;2023-12-04T04:36:26;-0.60;99.90
74155;DHT22;62509;46.248;6.018;2023-12-04T04:41:31;-0.70;99.90
74155;DHT22;62509;46.248;6.018;2023-12-04T04:46:34;-0.70;99.90
74155;DHT22;62509;46.248;6.018;2023-12-04T04:51:37;-0.50;99.90
74155;DHT22;62509;46.248;6.018;2023-12-04T04:56:42;-0.50;99.90
74155;DHT22;62509;46.248;6.018;2023-12-04T05:01:45;-0.50;99.90
74155;DHT22;62509;46.248;6.018;2023-12-04T05:06:49;-0.40;99.90
74155;DHT22;62509;46.248;6.018;2023-12-04T05:11:53;-0.50;99.90
74155;DHT22;62509;46.248;6.018;2023-12-04T05:16:57;-0.60;99.90
74155;DHT22;62509;46.248;6.018;2023-12-04T05:22:00;-0.50;99.90
74155;DHT22;62509;46.248;6.018;2023-12-04T05:27:05;-0.60;99.90
74155;DHT22;62509;46.248;6.018;2023-12-04T05:32:09;-0.60;99.90
74155;DHT22;62509;46.248;6.018;2023-12-04T05:37:12;-0.70;99.90
74155;DHT22;62509;46.248;6.018;2023-12-04T05:42:17;-0.60;99.90
74155;DHT22;62509;46.248;6.018;2023-12-04T05:47:20;-0.50;99.90
74155;DHT22;62509;46.248;6.018;2023-12-04T05:52:24;-0.60;99.90
74155;DHT22;62509;46.248;6.018;2023-12-04T05:57:28;-0.60;99.90
74155;DHT22;62509;46.248;6.018;2023-12-04T06:02:32;-0.40;99.90
74155;DHT22;62509;46.248;6.018;2023-12-04T06:07:36;-0.30;99.90
74155;DHT22;62509;46.248;6.018;2023-12-04T06:12:40;-0.30;99.90
74155;DHT22;62509;46.248;6.018;2023-12-04T06:17:46;-0.40;99.90
74155;DHT22;62509;46.248;6.018;2023-12-04T06:22:50;-0.40;99.90
74155;DHT22;62509;46.248;6.018;2023-12-04T06:27:56;-0.30;99.90
74155;DHT22;62509;46.248;6.018;2023-12-04T06:33:00;-0.20;99.90
74155;DHT22;62509;46.248;6.018;2023-12-04T06:38:05;-0.30;99.90
74155;DHT22;62509;46.248;6.018;2023-12-04T06:43:11;-0.30;99.90
74155;DHT22;62509;46.248;6.018;2023-12-04T06:48:17;-0.20;99.90
74155;DHT22;62509;46.248;6.018;2023-12-04T06:53:21;-0.30;99.90
74155;DHT22;62509;46.248;6.018;2023-12-04T06:58:26;-0.30;99.90
74155;DHT22;62509;46.248;6.018;2023-12-04T07:03:29;-0.30;99.90
74155;DHT22;62509;46.248;6.018;2023-12-04T07:08:32;-0.20;99.90
74155;DHT22;62509;46.248;6.018;2023-12-04T07:13:38;-0.20;99.90
74155;DHT22;62509;46.248;6.018;2023-12-04T07:18:43;-0.20;99.90
74155;DHT22;62509;46.248;6.018;2023-12-04T07:23:46;-0.10;99.90
74155;DHT22;62509;46.248;6.018;2023-12-04T07:28:54;-0.10;99.90
74155;DHT22;62509;46.248;6.018;2023-12-04T07:33:57;-0.10;99.90
74155;DHT22;62509;46.248;6.018;2023-12-04T07:39:02;0.00;99.90
74155;DHT22;62509;46.248;6.018;2023-12-04T07:44:09;0.00;99.90
74155;DHT22;62509;46.248;6.018;2023-12-04T07:49:12;0.00;99.90
74155;DHT22;62509;46.248;6.018;2023-12-04T07:54:16;0.00;99.90
74155;DHT22;62509;46.248;6.018;2023-12-04T07:59:21;0.10;99.90
74155;DHT22;62509;46.248;6.018;2023-12-04T08:04:24;0.20;99.90
74155;DHT22;62509;46.248;6.018;2023-12-04T08:09:29;0.20;99.90
74155;DHT22;62509;46.248;6.018;2023-12-04T08:14:33;0.20;99.90
74155;DHT22;62509;46.248;6.018;2023-12-04T08:19:37;0.30;99.90
74155;DHT22;62509;46.248;6.018;2023-12-04T08:24:41;0.20;99.90
74155;DHT22;62509;46.248;6.018;2023-12-04T08:29:45;0.20;99.90
74155;DHT22;62509;46.248;6.018;2023-12-04T08:34:49;0.30;99.90
74155;DHT22;62509;46.248;6.018;2023-12-04T08:39:52;0.50;99.90
74155;DHT22;62509;46.248;6.018;2023-12-04T08:45:00;0.60;99.90
74155;DHT22;62509;46.248;6.018;2023-12-04T08:50:03;0.60;99.90
74155;DHT22;62509;46.248;6.018;2023-12-04T08:55:10;0.50;99.90
74155;DHT22;62509;46.248;6.018;2023-12-04T09:00:15;0.70;99.90
74155;DHT22;62509;46.248;6.018;2023-12-04T09:05:20;0.70;99.90
74155;DHT22;62509;46.248;6.018;2023-12-04T09:10:24;0.60;99.90
74155;DHT22;62509;46.248;6.018;2023-12-04T09:15:49;0.70;99.90
74155;DHT22;62509;46.248;6.018;2023-12-04T09:20:53;0.60;99.90
74155;DHT22;62509;46.248;6.018;2023-12-04T09:25:57;0.60;99.90
74155;DHT22;62509;46.248;6.018;2023-12-04T09:31:02;0.80;99.90
74155;DHT22;62509;46.248;6.018;2023-12-04T09:36:06;0.70;99.90
74155;DHT22;62509;46.248;6.018;2023-12-04T09:41:10;0.80;99.90
74155;DHT22;62509;46.248;6.018;2023-12-04T09:46:16;0.90;99.90
74155;DHT22;62509;46.248;6.018;2023-12-04T09:51:20;1.00;99.90
74155;DHT22;62509;46.248;6.018;2023-12-04T09:56:23;1.00;99.90
74155;DHT22;62509;46.248;6.018;2023-12-04T10:01:29;0.90;99.90
74155;DHT22;62509;46.248;6.018;2023-12-04T10:06:36;1.00;99.90
74155;DHT22;62509;46.248;6.018;2023-12-04T10:11:40;1.00;99.90
74155;DHT22;62509;46.248;6.018;2023-12-04T10:16:45;1.00;99.90
74155;DHT22;62509;46.248;6.018;2023-12-04T10:21:50;1.00;99.90
74155;DHT22;62509;46.248;6.018;2023-12-04T10:26:55;1.00;99.90
74155;DHT22;62509;46.248;6.018;2023-12-04T10:32:01;1.10;99.90
74155;DHT22;62509;46.248;6.018;2023-12-04T10:37:04;1.00;99.90
74155;DHT22;62509;46.248;6.018;2023-12-04T10:42:08;1.10;99.90
74155;DHT22;62509;46.248;6.018;2023-12-04T10:47:13;1.00;99.90
74155;DHT22;62509;46.248;6.018;2023-12-04T10:52:17;1.00;99.90
74155;DHT22;62509;46.248;6.018;2023-12-04T10:57:26;1.20;99.90
74155;DHT22;62509;46.248;6.018;2023-12-04T11:02:33;1.10;99.90
74155;DHT22;62509;46.248;6.018;2023-12-04T11:07:37;1.10;99.90
74155;DHT22;62509;46.248;6.018;2023-12-04T11:13:02;1.10;99.90
74155;DHT22;62509;46.248;6.018;2023-12-04T11:18:12;1.00;99.90
74155;DHT22;62509;46.248;6.018;2023-12-04T11:23:16;1.00;99.90
74155;DHT22;62509;46.248;6.018;2023-12-04T11:28:22;1.00;99.90
74155;DHT22;62509;46.248;6.018;2023-12-04T11:33:30;1.00;99.90
74155;DHT22;62509;46.248;6.018;2023-12-04T11:38:38;0.90;99.90
74155;DHT22;62509;46.248;6.018;2023-12-04T11:43:42;0.90;99.90
74155;DHT22;62509;46.248;6.018;2023-12-04T11:48:47;0.90;99.90
74155;DHT22;62509;46.248;6.018;2023-12-04T11:53:50;0.90;99.90
74155;DHT22;62509;46.248;6.018;2023-12-04T11:58:54;0.90;99.90
74155;DHT22;62509;46.248;6.018;2023-12-04T12:04:09;0.80;99.90
74155;DHT22;62509;46.248;6.018;2023-12-04T12:09:13;0.80;99.90
74155;DHT22;62509;46.248;6.018;2023-12-04T12:14:19;0.80;99.90
74155;DHT22;62509;46.248;6.018;2023-12-04T12:19:25;0.90;99.90
74155;DHT22;62509;46.248;6.018;2023-12-04T12:24:29;0.90;99.90
74155;DHT22;62509;46.248;6.018;2023-12-04T12:29:33;0.90;99.90
74155;DHT22;62509;46.248;6.018;2023-12-04T12:34:38;0.90;99.90
74155;DHT22;62509;46.248;6.018;2023-12-04T12:39:41;1.00;99.90
74155;DHT22;62509;46.248;6.018;2023-12-04T12:44:44;1.00;99.90
74155;DHT22;62509;46.248;6.018;2023-12-04T12:49:49;1.10;99.90
74155;DHT22;62509;46.248;6.018;2023-12-04T12:54:53;1.00;99.90
74155;DHT22;62509;46.248;6.018;2023-12-04T12:59:56;1.10;99.90
74155;DHT22;62509;46.248;6.018;2023-12-04T13:05:01;1.10;99.90
74155;DHT22;62509;46.248;6.018;2023-12-04T13:10:06;1.00;99.90
74155;DHT22;62509;46.248;6.018;2023-12-04T13:15:10;1.10;99.90
74155;DHT22;62509;46.248;6.018;2023-12-04T13:20:16;1.00;99.90
74155;DHT22;62509;46.248;6.018;2023-12-04T13:25:19;1.00;99.90
74155;DHT22;62509;46.248;6.018;2023-12-04T13:30:24;1.10;99.90
74155;DHT22;62509;46.248;6.018;2023-12-04T13:35:29;1.30;99.90
74155;DHT22;62509;46.248;6.018;2023-12-04T13:40:32;1.20;99.90
74155;DHT22;62509;46.248;6.018;2023-12-04T13:45:36;1.10;99.90
74155;DHT22;62509;46.248;6.018;2023-12-04T13:50:41;1.10;99.90
74155;DHT22;62509;46.248;6.018;2023-12-04T13:55:45;1.10;99.90
74155;DHT22;62509;46.248;6.018;2023-12-04T14:01:10;1.20;99.90
74155;DHT22;62509;46.248;6.018;2023-12-04T14:06:18;1.30;99.90
74155;DHT22;62509;46.248;6.018;2023-12-04T14:11:22;1.20;99.90
74155;DHT22;62509;46.248;6.018;2023-12-04T14:16:26;1.20;99.90
74155;DHT22;62509;46.248;6.018;2023-12-04T14:21:32;1.10;99.90
74155;DHT22;62509;46.248;6.018;2023-12-04T14:26:35;1.10;99.90
74155;DHT22;62509;46.248;6.018;2023-12-04T14:31:39;1.10;99.90
74155;DHT22;62509;46.248;6.018;2023-12-04T14:36:44;1.00;99.90
74155;DHT22;62509;46.248;6.018;2023-12-04T14:41:47;1.00;99.90
74155;DHT22;62509;46.248;6.018;2023-12-04T14:46:50;1.00;99.90
74155;DHT22;62509;46.248;6.018;2023-12-04T14:51:57;1.00;99.90
74155;DHT22;62509;46.248;6.018;2023-12-04T14:57:02;1.00;99.90
74155;DHT22;62509;46.248;6.018;2023-12-04T15:02:29;1.10;99.90
74155;DHT22;62509;46.248;6.018;2023-12-04T15:08:00;1.20;99.90
74155;DHT22;62509;46.248;6.018;2023-12-04T15:13:25;1.20;99.90
74155;DHT22;62509;46.248;6.018;2023-12-04T15:18:52;1.20;99.90
74155;DHT22;62509;46.248;6.018;2023-12-04T15:24:14;1.20;99.90
74155;DHT22;62509;46.248;6.018;2023-12-04T15:29:18;1.10;99.90
74155;DHT22;62509;46.248;6.018;2023-12-04T15:34:22;1.20;99.90
74155;DHT22;62509;46.248;6.018;2023-12-04T15:39:26;1.10;99.90
74155;DHT22;62509;46.248;6.018;2023-12-04T15:44:30;1.00;99.90
74155;DHT22;62509;46.248;6.018;2023-12-04T15:49:33;1.00;99.90
74155;DHT22;62509;46.248;6.018;2023-12-04T15:54:38;1.00;99.90
74155;DHT22;62509;46.248;6.018;2023-12-04T15:59:42;1.10;99.90
74155;DHT22;62509;46.248;6.018;2023-12-04T16:04:46;1.00;99.90
74155;DHT22;62509;46.248;6.018;2023-12-04T16:09:51;1.00;99.90
74155;DHT22;62509;46.248;6.018;2023-12-04T16:14:54;1.10;99.90
74155;DHT22;62509;46.248;6.018;2023-12-04T16:19:58;1.00;99.90
74155;DHT22;62509;46.248;6.018;2023-12-04T16:25:03;1.10;99.90
74155;DHT22;62509;46.248;6.018;2023-12-04T16:30:08;1.10;99.90
74155;DHT22;62509;46.248;6.018;2023-12-04T16:35:12;1.10;99.90
74155;DHT22;62509;46.248;6.018;2023-12-04T16:40:17;1.10;99.90
74155;DHT22;62509;46.248;6.018;2023-12-04T16:45:20;1.10;99.90
74155;DHT22;62509;46.248;6.018;2023-12-04T16:50:24;1.10;99.90
74155;DHT22;62509;46.248;6.018;2023-12-04T16:55:30;1.10;99.90
74155;DHT22;62509;46.248;6.018;2023-12-04T17:00:35;1.10;99.90
74155;DHT22;62509;46.248;6.018;2023-12-04T17:05:38;1.10;99.90
74155;DHT22;62509;46.248;6.018;2023-12-04T17:10:43;1.20;99.90
74155;DHT22;62509;46.248;6.018;2023-12-04T17:15:50;1.10;99.90
74155;DHT22;62509;46.248;6.018;2023-12-04T17:20:53;1.10;99.90
74155;DHT22;62509;46.248;6.018;2023-12-04T17:25:58;1.10;99.90
74155;DHT22;62509;46.248;6.018;2023-12-04T17:31:01;1.00;99.90
74155;DHT22;62509;46.248;6.018;2023-12-04T17:36:05;1.10;99.90
74155;DHT22;62509;46.248;6.018;2023-12-04T17:41:11;1.10;99.90
74155;DHT22;62509;46.248;6.018;2023-12-04T17:46:15;1.20;99.90
74155;DHT22;62509;46.248;6.018;2023-12-04T17:51:18;1.10;99.90
74155;DHT22;62509;46.248;6.018;2023-12-04T17:56:23;1.20;99.90
74155;DHT22;62509;46.248;6.018;2023-12-04T18:01:26;1.20;99.90
74155;DHT22;62509;46.248;6.018;2023-12-04T18:06:30;1.20;99.90
74155;DHT22;62509;46.248;6.018;2023-12-04T18:11:35;1.20;99.90
74155;DHT22;62509;46.248;6.018;2023-12-04T18:16:38;1.30;99.90
74155;DHT22;62509;46.248;6.018;2023-12-04T18:21:42;1.20;99.90
74155;DHT22;62509;46.248;6.018;2023-12-04T18:26:48;1.20;99.90
74155;DHT22;62509;46.248;6.018;2023-12-04T18:31:52;1.20;99.90
74155;DHT22;62509;46.248;6.018;2023-12-04T18:36:57;1.30;99.90
74155;DHT22;62509;46.248;6.018;2023-12-04T18:42:05;1.30;99.90
74155;DHT22;62509;46.248;6.018;2023-12-04T18:47:09;1.40;99.90
74155;DHT22;62509;46.248;6.018;2023-12-04T18:52:18;1.40;99.90
74155;DHT22;62509;46.248;6.018;2023-12-04T18:57:23;1.50;99.90
74155;DHT22;62509;46.248;6.018;2023-12-04T19:02:26;1.50;99.90
74155;DHT22;62509;46.248;6.018;2023-12-04T19:07:30;1.50;99.90
74155;DHT22;62509;46.248;6.018;2023-12-04T19:12:35;1.60;99.90
74155;DHT22;62509;46.248;6.018;2023-12-04T19:17:38;1.70;99.90
74155;DHT22;62509;46.248;6.018;2023-12-04T19:22:42;2.00;99.90
74155;DHT22;62509;46.248;6.018;2023-12-04T19:27:46;2.30;99.90
74155;DHT22;62509;46.248;6.018;2023-12-04T19:32:50;2.40;99.90
74155;DHT22;62509;46.248;6.018;2023-12-04T19:37:53;2.50;99.90
74155;DHT22;62509;46.248;6.018;2023-12-04T19:42:58;2.50;99.90
74155;DHT22;62509;46.248;6.018;2023-12-04T19:48:02;2.50;99.90
74155;DHT22;62509;46.248;6.018;2023-12-04T19:53:05;2.50;99.90
74155;DHT22;62509;46.248;6.018;2023-12-04T19:58:10;2.50;99.90
74155;DHT22;62509;46.248;6.018;2023-12-04T20:03:13;2.70;99.90
74155;DHT22;62509;46.248;6.018;2023-12-04T20:08:17;2.70;99.90
74155;DHT22;62509;46.248;6.018;2023-12-04T20:13:22;2.70;99.90
74155;DHT22;62509;46.248;6.018;2023-12-04T20:18:25;2.70;99.90
74155;DHT22;62509;46.248;6.018;2023-12-04T20:23:29;2.60;99.90
74155;DHT22;62509;46.248;6.018;2023-12-04T20:28:34;2.80;99.90
74155;DHT22;62509;46.248;6.018;2023-12-04T20:33:38;2.70;99.90
74155;DHT22;62509;46.248;6.018;2023-12-04T20:38:42;2.80;99.90
74155;DHT22;62509;46.248;6.018;2023-12-04T20:43:46;2.80;99.90
74155;DHT22;62509;46.248;6.018;2023-12-04T20:48:50;2.90;99.90
74155;DHT22;62509;46.248;6.018;2023-12-04T20:53:54;3.00;99.90
74155;DHT22;62509;46.248;6.018;2023-12-04T20:58:58;2.90;99.90
74155;DHT22;62509;46.248;6.018;2023-12-04T21:04:02;3.00;99.90
74155;DHT22;62509;46.248;6.018;2023-12-04T21:09:06;3.10;99.90
74155;DHT22;62509;46.248;6.018;2023-12-04T21:14:11;3.10;99.90
74155;DHT22;62509;46.248;6.018;2023-12-04T21:19:15;3.20;99.90
74155;DHT22;62509;46.248;6.018;2023-12-04T21:24:18;3.30;99.90
74155;DHT22;62509;46.248;6.018;2023-12-04T21:29:23;3.20;99.90
74155;DHT22;62509;46.248;6.018;2023-12-04T21:34:26;3.30;99.90
74155;DHT22;62509;46.248;6.018;2023-12-04T21:39:31;3.40;99.90
74155;DHT22;62509;46.248;6.018;2023-12-04T21:44:36;3.40;99.90
74155;DHT22;62509;46.248;6.018;2023-12-04T21:49:39;3.50;99.90
74155;DHT22;62509;46.248;6.018;2023-12-04T21:54:45;3.50;99.90
74155;DHT22;62509;46.248;6.018;2023-12-04T21:59:51;3.40;99.90
74155;DHT22;62509;46.248;6.018;2023-12-04T22:04:55;3.50;99.90
74155;DHT22;62509;46.248;6.018;2023-12-04T22:09:59;3.50;99.90
74155;DHT22;62509;46.248;6.018;2023-12-04T22:15:04;3.50;99.90
74155;DHT22;62509;46.248;6.018;2023-12-04T22:20:11;3.40;99.90
74155;DHT22;62509;46.248;6.018;2023-12-04T22:25:14;3.40;99.90
74155;DHT22;62509;46.248;6.018;2023-12-04T22:30:19;3.30;99.90
74155;DHT22;62509;46.248;6.018;2023-12-04T22:35:22;3.10;99.90
74155;DHT22;62509;46.248;6.018;2023-12-04T22:40:26;3.20;99.90
74155;DHT22;62509;46.248;6.018;2023-12-04T22:45:31;3.60;99.90
74155;DHT22;62509;46.248;6.018;2023-12-04T22:50:35;3.40;99.90
74155;DHT22;62509;46.248;6.018;2023-12-04T22:55:38;3.30;99.90
74155;DHT22;62509;46.248;6.018;2023-12-04T23:00:43;3.20;99.90
74155;DHT22;62509;46.248;6.018;2023-12-04T23:05:46;3.30;99.90
74155;DHT22;62509;46.248;6.018;2023-12-04T23:10:50;3.20;99.90
74155;DHT22;62509;46.248;6.018;2023-12-04T23:15:55;3.40;99.90
74155;DHT22;62509;46.248;6.018;2023-12-04T23:20:58;3.00;99.90
74155;DHT22;62509;46.248;6.018;2023-12-04T23:26:02;2.70;99.90
74155;DHT22;62509;46.248;6.018;2023-12-04T23:31:08;2.70;99.90
74155;DHT22;62509;46.248;6.018;2023-12-04T23:36:11;2.80;99.90
74155;DHT22;62509;46.248;6.018;2023-12-04T23:41:15;2.60;99.90
74155;DHT22;62509;46.248;6.018;2023-12-04T23:46:20;2.60;99.90
74155;DHT22;62509;46.248;6.018;2023-12-04T23:51:23;2.70;99.90
74155;DHT22;62509;46.248;6.018;2023-12-04T23:56:26;2.70;99.90
